Clackamas, Oregon
Current Conditions -  °F | °C
As of 2:53 PM on Friday 28 Nov 2014 (Local Time) from KTTD Reporting Station
Haze Haze  
Wind Chill: 57°   Ceiling: 4900
Heat Index: 57°   Visibility: 3mi
Dew Point: 51°   Wind: 22mph
Humidity: 81%   Direction: 220°SW
Pressure: 29.47"   Gusts: 29mph
Location:  45.41°N, 122.55°W
Report Text: KTTD 282253Z 22019G25KT 3SM HZ FEW022 BKN049 OVC060 14/11 A2947 RMK AO2 PK WND 22026/2242 RAE33 SLP980 P0003 T01390106
Loading
Personal Weather Stations






























Interactive Weather Map New forecast layout! Learn more

10-Day Weather Forecast

Advertisements
Track Severe Weather on mobile